sensor_id;sensor_type;location;lat;lon;timestamp;temperature;humidity
26136;DHT22;13889;50.806;4.608;2022-09-14T00:00:58;19.70;99.90
26136;DHT22;13889;50.806;4.608;2022-09-14T00:03:24;19.70;99.90
26136;DHT22;13889;50.806;4.608;2022-09-14T00:05:50;19.70;99.90
26136;DHT22;13889;50.806;4.608;2022-09-14T00:08:15;19.70;99.90
26136;DHT22;13889;50.806;4.608;2022-09-14T00:10:43;19.80;99.90
26136;DHT22;13889;50.806;4.608;2022-09-14T00:13:12;19.80;99.90
26136;DHT22;13889;50.806;4.608;2022-09-14T00:15:40;19.90;99.90
26136;DHT22;13889;50.806;4.608;2022-09-14T00:18:08;19.90;99.90
26136;DHT22;13889;50.806;4.608;2022-09-14T00:20:34;19.90;99.90
26136;DHT22;13889;50.806;4.608;2022-09-14T00:23:00;19.90;99.90
26136;DHT22;13889;50.806;4.608;2022-09-14T00:25:26;19.90;99.90
26136;DHT22;13889;50.806;4.608;2022-09-14T00:27:53;19.80;99.90
26136;DHT22;13889;50.806;4.608;2022-09-14T00:30:19;19.90;99.90
26136;DHT22;13889;50.806;4.608;2022-09-14T00:32:46;19.90;99.90
26136;DHT22;13889;50.806;4.608;2022-09-14T00:35:12;19.80;99.90
26136;DHT22;13889;50.806;4.608;2022-09-14T00:37:37;19.90;99.90
26136;DHT22;13889;50.806;4.608;2022-09-14T00:40:05;19.80;99.90
26136;DHT22;13889;50.806;4.608;2022-09-14T00:42:31;19.70;99.90
26136;DHT22;13889;50.806;4.608;2022-09-14T00:45:00;19.70;99.90
26136;DHT22;13889;50.806;4.608;2022-09-14T00:47:28;19.70;99.90
26136;DHT22;13889;50.806;4.608;2022-09-14T00:49:55;19.60;99.90
26136;DHT22;13889;50.806;4.608;2022-09-14T00:52:26;19.60;99.90
26136;DHT22;13889;50.806;4.608;2022-09-14T00:55:03;19.60;99.90
26136;DHT22;13889;50.806;4.608;2022-09-14T00:57:33;19.60;99.90
26136;DHT22;13889;50.806;4.608;2022-09-14T01:00:00;19.60;99.90
26136;DHT22;13889;50.806;4.608;2022-09-14T01:02:27;19.60;99.90
26136;DHT22;13889;50.806;4.608;2022-09-14T01:04:53;19.60;99.90
26136;DHT22;13889;50.806;4.608;2022-09-14T01:07:30;19.50;99.90
26136;DHT22;13889;50.806;4.608;2022-09-14T01:15:47;19.50;99.90
26136;DHT22;13889;50.806;4.608;2022-09-14T01:18:54;19.50;99.90
26136;DHT22;13889;50.806;4.608;2022-09-14T01:21:32;19.40;99.90
26136;DHT22;13889;50.806;4.608;2022-09-14T01:29:47;19.40;99.90
26136;DHT22;13889;50.806;4.608;2022-09-14T01:32:28;19.40;99.90
26136;DHT22;13889;50.806;4.608;2022-09-14T01:35:30;19.40;99.90
26136;DHT22;13889;50.806;4.608;2022-09-14T01:38:13;19.30;99.90
26136;DHT22;13889;50.806;4.608;2022-09-14T01:40:44;19.20;99.90
26136;DHT22;13889;50.806;4.608;2022-09-14T01:43:16;19.00;99.90
26136;DHT22;13889;50.806;4.608;2022-09-14T01:45:48;19.00;99.90
26136;DHT22;13889;50.806;4.608;2022-09-14T01:48:20;19.00;99.90
26136;DHT22;13889;50.806;4.608;2022-09-14T01:50:50;19.10;99.90
26136;DHT22;13889;50.806;4.608;2022-09-14T01:53:31;19.00;99.90
26136;DHT22;13889;50.806;4.608;2022-09-14T01:56:29;19.00;99.90
26136;DHT22;13889;50.806;4.608;2022-09-14T01:59:16;19.00;99.90
26136;DHT22;13889;50.806;4.608;2022-09-14T02:01:57;18.90;99.90
26136;DHT22;13889;50.806;4.608;2022-09-14T02:07:09;18.90;99.90
26136;DHT22;13889;50.806;4.608;2022-09-14T02:09:35;18.90;99.90
26136;DHT22;13889;50.806;4.608;2022-09-14T02:12:02;19.00;99.90
26136;DHT22;13889;50.806;4.608;2022-09-14T02:14:28;19.00;99.90
26136;DHT22;13889;50.806;4.608;2022-09-14T02:16:55;19.00;99.90
26136;DHT22;13889;50.806;4.608;2022-09-14T02:19:21;19.00;99.90
26136;DHT22;13889;50.806;4.608;2022-09-14T02:21:48;19.00;99.90
26136;DHT22;13889;50.806;4.608;2022-09-14T02:24:15;19.00;99.90
26136;DHT22;13889;50.806;4.608;2022-09-14T02:26:41;19.00;99.90
26136;DHT22;13889;50.806;4.608;2022-09-14T02:29:07;18.90;99.90
26136;DHT22;13889;50.806;4.608;2022-09-14T02:31:57;18.70;99.90
26136;DHT22;13889;50.806;4.608;2022-09-14T02:37:38;18.80;99.90
26136;DHT22;13889;50.806;4.608;2022-09-14T02:40:15;18.90;99.90
26136;DHT22;13889;50.806;4.608;2022-09-14T02:45:55;18.80;99.90
26136;DHT22;13889;50.806;4.608;2022-09-14T02:51:23;18.70;99.90
26136;DHT22;13889;50.806;4.608;2022-09-14T02:53:57;18.70;99.90
26136;DHT22;13889;50.806;4.608;2022-09-14T02:56:24;18.70;99.90
26136;DHT22;13889;50.806;4.608;2022-09-14T02:58:51;18.60;99.90
26136;DHT22;13889;50.806;4.608;2022-09-14T03:01:19;18.60;99.90
26136;DHT22;13889;50.806;4.608;2022-09-14T03:03:45;18.40;99.90
26136;DHT22;13889;50.806;4.608;2022-09-14T03:06:11;18.40;99.90
26136;DHT22;13889;50.806;4.608;2022-09-14T03:08:37;18.40;99.90
26136;DHT22;13889;50.806;4.608;2022-09-14T03:11:03;18.40;99.90
26136;DHT22;13889;50.806;4.608;2022-09-14T03:13:30;18.40;99.90
26136;DHT22;13889;50.806;4.608;2022-09-14T03:15:55;18.40;99.90
26136;DHT22;13889;50.806;4.608;2022-09-14T03:18:21;18.50;99.90
26136;DHT22;13889;50.806;4.608;2022-09-14T03:20:47;18.50;99.90
26136;DHT22;13889;50.806;4.608;2022-09-14T03:23:13;18.50;99.90
26136;DHT22;13889;50.806;4.608;2022-09-14T03:25:41;18.60;99.90
26136;DHT22;13889;50.806;4.608;2022-09-14T03:28:08;18.50;99.90
26136;DHT22;13889;50.806;4.608;2022-09-14T03:30:35;18.50;99.90
26136;DHT22;13889;50.806;4.608;2022-09-14T03:33:01;18.50;99.90
26136;DHT22;13889;50.806;4.608;2022-09-14T03:35:28;18.60;99.90
26136;DHT22;13889;50.806;4.608;2022-09-14T03:37:56;18.60;99.90
26136;DHT22;13889;50.806;4.608;2022-09-14T03:40:22;18.60;99.90
26136;DHT22;13889;50.806;4.608;2022-09-14T03:52:54;18.60;99.90
26136;DHT22;13889;50.806;4.608;2022-09-14T03:55:20;18.50;99.90
26136;DHT22;13889;50.806;4.608;2022-09-14T03:57:46;18.50;99.90
26136;DHT22;13889;50.806;4.608;2022-09-14T04:00:12;18.50;99.90
26136;DHT22;13889;50.806;4.608;2022-09-14T04:02:39;18.60;99.90
26136;DHT22;13889;50.806;4.608;2022-09-14T04:05:06;18.50;99.90
26136;DHT22;13889;50.806;4.608;2022-09-14T04:07:32;18.50;99.90
26136;DHT22;13889;50.806;4.608;2022-09-14T04:09:57;18.50;99.90
26136;DHT22;13889;50.806;4.608;2022-09-14T04:12:23;18.50;99.90
26136;DHT22;13889;50.806;4.608;2022-09-14T04:14:49;18.50;99.90
26136;DHT22;13889;50.806;4.608;2022-09-14T04:17:14;18.50;99.90
26136;DHT22;13889;50.806;4.608;2022-09-14T04:19:41;18.40;99.90
26136;DHT22;13889;50.806;4.608;2022-09-14T04:22:07;18.40;99.90
26136;DHT22;13889;50.806;4.608;2022-09-14T04:24:33;18.40;99.90
26136;DHT22;13889;50.806;4.608;2022-09-14T04:26:59;18.30;99.90
26136;DHT22;13889;50.806;4.608;2022-09-14T04:29:25;18.20;99.90
26136;DHT22;13889;50.806;4.608;2022-09-14T04:31:50;18.20;99.90
26136;DHT22;13889;50.806;4.608;2022-09-14T04:34:16;18.30;99.90
26136;DHT22;13889;50.806;4.608;2022-09-14T04:36:42;18.20;99.90
26136;DHT22;13889;50.806;4.608;2022-09-14T04:39:10;18.10;99.90
26136;DHT22;13889;50.806;4.608;2022-09-14T04:41:36;18.10;99.90
26136;DHT22;13889;50.806;4.608;2022-09-14T04:44:02;18.10;99.90
26136;DHT22;13889;50.806;4.608;2022-09-14T04:46:30;18.10;99.90
26136;DHT22;13889;50.806;4.608;2022-09-14T04:48:55;18.10;99.90
26136;DHT22;13889;50.806;4.608;2022-09-14T04:51:26;18.00;99.90
26136;DHT22;13889;50.806;4.608;2022-09-14T04:53:53;17.90;99.90
26136;DHT22;13889;50.806;4.608;2022-09-14T04:56:22;17.90;99.90
26136;DHT22;13889;50.806;4.608;2022-09-14T04:58:51;18.00;99.90
26136;DHT22;13889;50.806;4.608;2022-09-14T05:01:20;18.00;99.90
26136;DHT22;13889;50.806;4.608;2022-09-14T05:03:46;17.90;99.90
26136;DHT22;13889;50.806;4.608;2022-09-14T05:06:20;17.90;99.90
26136;DHT22;13889;50.806;4.608;2022-09-14T05:08:47;17.80;99.90
26136;DHT22;13889;50.806;4.608;2022-09-14T05:11:16;17.60;99.90
26136;DHT22;13889;50.806;4.608;2022-09-14T05:13:42;17.60;99.90
26136;DHT22;13889;50.806;4.608;2022-09-14T05:16:21;17.70;99.90
26136;DHT22;13889;50.806;4.608;2022-09-14T05:18:47;17.70;99.90
26136;DHT22;13889;50.806;4.608;2022-09-14T05:21:15;17.60;99.90
26136;DHT22;13889;50.806;4.608;2022-09-14T05:23:41;17.50;99.90
26136;DHT22;13889;50.806;4.608;2022-09-14T05:26:07;17.60;99.90
26136;DHT22;13889;50.806;4.608;2022-09-14T05:28:34;17.60;99.90
26136;DHT22;13889;50.806;4.608;2022-09-14T05:31:05;17.70;99.90
26136;DHT22;13889;50.806;4.608;2022-09-14T05:33:32;17.70;99.90
26136;DHT22;13889;50.806;4.608;2022-09-14T05:36:03;17.70;99.90
26136;DHT22;13889;50.806;4.608;2022-09-14T05:38:30;17.60;99.90
26136;DHT22;13889;50.806;4.608;2022-09-14T05:40:56;17.60;99.90
26136;DHT22;13889;50.806;4.608;2022-09-14T05:43:22;17.60;99.90
26136;DHT22;13889;50.806;4.608;2022-09-14T05:45:48;17.50;99.90
26136;DHT22;13889;50.806;4.608;2022-09-14T05:48:14;17.60;99.90
26136;DHT22;13889;50.806;4.608;2022-09-14T05:50:40;17.70;99.90
26136;DHT22;13889;50.806;4.608;2022-09-14T05:53:05;17.70;99.90
26136;DHT22;13889;50.806;4.608;2022-09-14T05:55:31;17.70;99.90
26136;DHT22;13889;50.806;4.608;2022-09-14T05:57:56;17.70;99.90
26136;DHT22;13889;50.806;4.608;2022-09-14T06:00:22;17.60;99.90
26136;DHT22;13889;50.806;4.608;2022-09-14T06:02:50;17.60;99.90
26136;DHT22;13889;50.806;4.608;2022-09-14T06:05:16;17.70;99.90
26136;DHT22;13889;50.806;4.608;2022-09-14T06:07:42;17.70;99.90
26136;DHT22;13889;50.806;4.608;2022-09-14T06:10:09;17.80;99.90
26136;DHT22;13889;50.806;4.608;2022-09-14T06:12:35;17.70;99.90
26136;DHT22;13889;50.806;4.608;2022-09-14T06:15:01;17.60;99.90
26136;DHT22;13889;50.806;4.608;2022-09-14T06:17:30;17.50;99.90
26136;DHT22;13889;50.806;4.608;2022-09-14T06:19:56;17.60;99.90
26136;DHT22;13889;50.806;4.608;2022-09-14T07:50:33;18.10;99.90
26136;DHT22;13889;50.806;4.608;2022-09-14T07:52:58;18.10;99.90
26136;DHT22;13889;50.806;4.608;2022-09-14T07:55:24;18.00;99.90
26136;DHT22;13889;50.806;4.608;2022-09-14T07:57:53;18.00;99.90
26136;DHT22;13889;50.806;4.608;2022-09-14T08:00:22;17.90;99.90
26136;DHT22;13889;50.806;4.608;2022-09-14T08:02:52;18.00;99.90
26136;DHT22;13889;50.806;4.608;2022-09-14T08:05:19;18.00;99.90
26136;DHT22;13889;50.806;4.608;2022-09-14T08:07:45;18.00;99.90
26136;DHT22;13889;50.806;4.608;2022-09-14T08:10:11;18.00;99.90
26136;DHT22;13889;50.806;4.608;2022-09-14T08:12:36;18.10;99.90
26136;DHT22;13889;50.806;4.608;2022-09-14T08:15:03;18.10;99.90
26136;DHT22;13889;50.806;4.608;2022-09-14T08:17:29;18.10;99.90
26136;DHT22;13889;50.806;4.608;2022-09-14T08:19:54;18.20;99.90
26136;DHT22;13889;50.806;4.608;2022-09-14T08:22:20;18.10;99.90
26136;DHT22;13889;50.806;4.608;2022-09-14T08:24:46;18.00;99.90
26136;DHT22;13889;50.806;4.608;2022-09-14T08:27:12;18.00;99.90
26136;DHT22;13889;50.806;4.608;2022-09-14T08:29:37;18.10;99.90
26136;DHT22;13889;50.806;4.608;2022-09-14T08:32:04;18.10;99.90
26136;DHT22;13889;50.806;4.608;2022-09-14T08:34:29;17.90;99.90
26136;DHT22;13889;50.806;4.608;2022-09-14T08:36:55;18.00;99.90
26136;DHT22;13889;50.806;4.608;2022-09-14T08:39:20;18.10;99.90
26136;DHT22;13889;50.806;4.608;2022-09-14T08:41:53;18.00;99.90
26136;DHT22;13889;50.806;4.608;2022-09-14T08:52:26;18.10;99.90
26136;DHT22;13889;50.806;4.608;2022-09-14T08:54:55;17.90;99.90
26136;DHT22;13889;50.806;4.608;2022-09-14T08:57:32;17.80;99.90
26136;DHT22;13889;50.806;4.608;2022-09-14T09:00:14;17.80;99.90
26136;DHT22;13889;50.806;4.608;2022-09-14T09:05:35;18.00;99.90
26136;DHT22;13889;50.806;4.608;2022-09-14T09:08:23;18.20;99.90
26136;DHT22;13889;50.806;4.608;2022-09-14T09:10:52;18.20;99.90
26136;DHT22;13889;50.806;4.608;2022-09-14T09:13:21;18.30;99.90
26136;DHT22;13889;50.806;4.608;2022-09-14T09:15:53;18.30;99.90
26136;DHT22;13889;50.806;4.608;2022-09-14T09:21:03;18.30;99.90
26136;DHT22;13889;50.806;4.608;2022-09-14T09:23:30;18.20;99.90
26136;DHT22;13889;50.806;4.608;2022-09-14T09:26:20;18.20;99.90
26136;DHT22;13889;50.806;4.608;2022-09-14T09:28:50;18.20;99.90
26136;DHT22;13889;50.806;4.608;2022-09-14T09:31:17;18.30;99.90
26136;DHT22;13889;50.806;4.608;2022-09-14T09:33:48;18.20;99.90
26136;DHT22;13889;50.806;4.608;2022-09-14T09:36:14;18.20;99.90
26136;DHT22;13889;50.806;4.608;2022-09-14T09:38:40;18.20;99.90
26136;DHT22;13889;50.806;4.608;2022-09-14T09:41:16;18.20;99.90
26136;DHT22;13889;50.806;4.608;2022-09-14T09:44:04;18.30;99.90
26136;DHT22;13889;50.806;4.608;2022-09-14T09:46:38;18.30;99.90
26136;DHT22;13889;50.806;4.608;2022-09-14T09:49:23;18.40;99.90
26136;DHT22;13889;50.806;4.608;2022-09-14T09:51:49;18.50;99.90
26136;DHT22;13889;50.806;4.608;2022-09-14T09:54:23;18.50;99.90
26136;DHT22;13889;50.806;4.608;2022-09-14T09:59:37;18.50;99.90
26136;DHT22;13889;50.806;4.608;2022-09-14T10:05:22;18.60;99.90
26136;DHT22;13889;50.806;4.608;2022-09-14T10:10:15;18.60;99.90
26136;DHT22;13889;50.806;4.608;2022-09-14T10:12:52;18.70;99.90
26136;DHT22;13889;50.806;4.608;2022-09-14T10:15:22;18.70;99.90
26136;DHT22;13889;50.806;4.608;2022-09-14T10:20:31;18.70;99.90
26136;DHT22;13889;50.806;4.608;2022-09-14T10:23:15;18.80;99.90
26136;DHT22;13889;50.806;4.608;2022-09-14T10:33:40;18.60;99.90
26136;DHT22;13889;50.806;4.608;2022-09-14T10:36:13;18.70;99.90
26136;DHT22;13889;50.806;4.608;2022-09-14T10:39:13;18.60;99.90
26136;DHT22;13889;50.806;4.608;2022-09-14T10:41:47;18.70;99.90
26136;DHT22;13889;50.806;4.608;2022-09-14T10:50:25;18.80;99.90
26136;DHT22;13889;50.806;4.608;2022-09-14T10:53:40;19.00;99.90
26136;DHT22;13889;50.806;4.608;2022-09-14T10:55:51;19.00;99.90
26136;DHT22;13889;50.806;4.608;2022-09-14T10:58:21;19.00;99.90
26136;DHT22;13889;50.806;4.608;2022-09-14T11:06:43;19.40;99.90
26136;DHT22;13889;50.806;4.608;2022-09-14T11:09:35;19.50;99.90
26136;DHT22;13889;50.806;4.608;2022-09-14T11:12:12;19.50;99.90
26136;DHT22;13889;50.806;4.608;2022-09-14T11:15:00;19.60;99.90
26136;DHT22;13889;50.806;4.608;2022-09-14T11:25:25;19.40;99.90
26136;DHT22;13889;50.806;4.608;2022-09-14T11:28:22;19.50;99.90
26136;DHT22;13889;50.806;4.608;2022-09-14T11:30:53;19.50;99.90
26136;DHT22;13889;50.806;4.608;2022-09-14T11:36:24;19.60;99.90
26136;DHT22;13889;50.806;4.608;2022-09-14T11:39:00;19.70;99.90
26136;DHT22;13889;50.806;4.608;2022-09-14T11:41:42;19.80;99.90
26136;DHT22;13889;50.806;4.608;2022-09-14T11:44:15;19.40;99.90
26136;DHT22;13889;50.806;4.608;2022-09-14T11:47:12;19.40;99.90
26136;DHT22;13889;50.806;4.608;2022-09-14T11:49:48;19.40;99.90
26136;DHT22;13889;50.806;4.608;2022-09-14T11:52:22;19.70;99.90
26136;DHT22;13889;50.806;4.608;2022-09-14T11:54:48;19.80;99.90
26136;DHT22;13889;50.806;4.608;2022-09-14T11:57:20;19.70;99.90
26136;DHT22;13889;50.806;4.608;2022-09-14T11:59:56;19.60;99.90
26136;DHT22;13889;50.806;4.608;2022-09-14T12:12:42;19.30;99.90
26136;DHT22;13889;50.806;4.608;2022-09-14T12:17:40;19.30;99.90
26136;DHT22;13889;50.806;4.608;2022-09-14T12:46:44;19.20;99.90
26136;DHT22;13889;50.806;4.608;2022-09-14T13:04:35;19.10;99.90
26136;DHT22;13889;50.806;4.608;2022-09-14T13:07:05;19.20;99.90
26136;DHT22;13889;50.806;4.608;2022-09-14T13:09:32;19.10;99.90
26136;DHT22;13889;50.806;4.608;2022-09-14T13:14:48;19.00;99.90
26136;DHT22;13889;50.806;4.608;2022-09-14T13:17:16;18.90;99.90
26136;DHT22;13889;50.806;4.608;2022-09-14T13:19:42;18.80;99.90
26136;DHT22;13889;50.806;4.608;2022-09-14T13:22:19;18.90;99.90
26136;DHT22;13889;50.806;4.608;2022-09-14T13:24:46;19.00;99.90
26136;DHT22;13889;50.806;4.608;2022-09-14T13:27:28;19.10;99.90
26136;DHT22;13889;50.806;4.608;2022-09-14T13:30:15;19.10;99.90
26136;DHT22;13889;50.806;4.608;2022-09-14T13:32:44;19.20;99.90
26136;DHT22;13889;50.806;4.608;2022-09-14T13:35:17;19.20;99.90
26136;DHT22;13889;50.806;4.608;2022-09-14T13:37:44;19.30;99.90
26136;DHT22;13889;50.806;4.608;2022-09-14T13:40:11;19.30;99.90
26136;DHT22;13889;50.806;4.608;2022-09-14T13:42:36;19.20;99.90
26136;DHT22;13889;50.806;4.608;2022-09-14T13:45:03;19.20;99.90
26136;DHT22;13889;50.806;4.608;2022-09-14T13:47:29;19.20;99.90
26136;DHT22;13889;50.806;4.608;2022-09-14T13:49:55;19.30;99.90
26136;DHT22;13889;50.806;4.608;2022-09-14T13:54:52;19.10;99.90
26136;DHT22;13889;50.806;4.608;2022-09-14T13:57:20;19.20;99.90
26136;DHT22;13889;50.806;4.608;2022-09-14T14:00:18;19.10;99.90
26136;DHT22;13889;50.806;4.608;2022-09-14T14:02:48;19.10;99.90
26136;DHT22;13889;50.806;4.608;2022-09-14T14:05:28;19.10;99.90
26136;DHT22;13889;50.806;4.608;2022-09-14T14:07:55;19.20;99.90
26136;DHT22;13889;50.806;4.608;2022-09-14T14:10:33;19.10;99.90
26136;DHT22;13889;50.806;4.608;2022-09-14T14:13:01;19.00;99.90
26136;DHT22;13889;50.806;4.608;2022-09-14T14:17:53;19.10;99.90
26136;DHT22;13889;50.806;4.608;2022-09-14T14:23:18;19.10;99.90
26136;DHT22;13889;50.806;4.608;2022-09-14T14:25:48;19.20;99.90
26136;DHT22;13889;50.806;4.608;2022-09-14T14:28:29;19.20;99.90
26136;DHT22;13889;50.806;4.608;2022-09-14T14:30:57;19.10;99.90
26136;DHT22;13889;50.806;4.608;2022-09-14T14:33:23;19.20;99.90
26136;DHT22;13889;50.806;4.608;2022-09-14T14:35:51;19.00;99.90
26136;DHT22;13889;50.806;4.608;2022-09-14T14:38:17;19.00;99.90
26136;DHT22;13889;50.806;4.608;2022-09-14T14:40:45;18.70;99.90
26136;DHT22;13889;50.806;4.608;2022-09-14T14:43:22;18.70;99.90
26136;DHT22;13889;50.806;4.608;2022-09-14T14:45:55;18.50;99.90
26136;DHT22;13889;50.806;4.608;2022-09-14T14:48:21;18.70;99.90
26136;DHT22;13889;50.806;4.608;2022-09-14T14:50:48;18.70;99.90
26136;DHT22;13889;50.806;4.608;2022-09-14T14:53:13;18.90;99.90
26136;DHT22;13889;50.806;4.608;2022-09-14T14:55:39;19.10;99.90
26136;DHT22;13889;50.806;4.608;2022-09-14T14:58:06;19.10;99.90
26136;DHT22;13889;50.806;4.608;2022-09-14T15:00:35;19.20;99.90
26136;DHT22;13889;50.806;4.608;2022-09-14T15:03:03;19.10;99.90
26136;DHT22;13889;50.806;4.608;2022-09-14T15:05:29;19.20;99.90
26136;DHT22;13889;50.806;4.608;2022-09-14T15:07:55;19.10;99.90
26136;DHT22;13889;50.806;4.608;2022-09-14T15:10:23;18.90;99.90
26136;DHT22;13889;50.806;4.608;2022-09-14T15:12:49;18.40;99.90
26136;DHT22;13889;50.806;4.608;2022-09-14T15:15:18;18.30;99.90
26136;DHT22;13889;50.806;4.608;2022-09-14T15:17:44;18.20;99.90
26136;DHT22;13889;50.806;4.608;2022-09-14T15:20:10;18.30;99.90
26136;DHT22;13889;50.806;4.608;2022-09-14T15:22:36;18.10;99.90
26136;DHT22;13889;50.806;4.608;2022-09-14T15:25:03;18.00;99.90
26136;DHT22;13889;50.806;4.608;2022-09-14T15:27:30;17.90;99.90
26136;DHT22;13889;50.806;4.608;2022-09-14T15:29:55;18.10;99.90
26136;DHT22;13889;50.806;4.608;2022-09-14T15:32:21;18.00;99.90
26136;DHT22;13889;50.806;4.608;2022-09-14T15:34:47;17.90;99.90
26136;DHT22;13889;50.806;4.608;2022-09-14T15:37:12;17.90;99.90
26136;DHT22;13889;50.806;4.608;2022-09-14T15:39:38;17.90;99.90
26136;DHT22;13889;50.806;4.608;2022-09-14T15:42:04;18.00;99.90
26136;DHT22;13889;50.806;4.608;2022-09-14T15:44:30;17.80;99.90
26136;DHT22;13889;50.806;4.608;2022-09-14T15:46:57;17.90;99.90
26136;DHT22;13889;50.806;4.608;2022-09-14T15:49:24;17.90;99.90
26136;DHT22;13889;50.806;4.608;2022-09-14T15:51:51;17.90;99.90
26136;DHT22;13889;50.806;4.608;2022-09-14T15:54:18;17.80;99.90
26136;DHT22;13889;50.806;4.608;2022-09-14T15:56:54;17.60;99.90
26136;DHT22;13889;50.806;4.608;2022-09-14T15:59:20;17.70;99.90
26136;DHT22;13889;50.806;4.608;2022-09-14T16:01:46;17.60;99.90
26136;DHT22;13889;50.806;4.608;2022-09-14T16:04:12;17.50;99.90
26136;DHT22;13889;50.806;4.608;2022-09-14T16:06:38;17.60;99.90
26136;DHT22;13889;50.806;4.608;2022-09-14T16:09:08;17.70;99.90
26136;DHT22;13889;50.806;4.608;2022-09-14T16:11:34;17.80;99.90
26136;DHT22;13889;50.806;4.608;2022-09-14T16:14:00;17.80;99.90
26136;DHT22;13889;50.806;4.608;2022-09-14T16:16:26;17.70;99.90
26136;DHT22;13889;50.806;4.608;2022-09-14T16:18:51;17.60;99.90
26136;DHT22;13889;50.806;4.608;2022-09-14T16:21:20;17.60;99.90
26136;DHT22;13889;50.806;4.608;2022-09-14T16:23:49;17.70;99.90
26136;DHT22;13889;50.806;4.608;2022-09-14T16:26:18;17.70;99.90
26136;DHT22;13889;50.806;4.608;2022-09-14T16:28:45;17.80;99.90
26136;DHT22;13889;50.806;4.608;2022-09-14T16:33:39;17.50;99.90
26136;DHT22;13889;50.806;4.608;2022-09-14T16:36:08;17.50;99.90
26136;DHT22;13889;50.806;4.608;2022-09-14T16:38:35;17.70;99.90
26136;DHT22;13889;50.806;4.608;2022-09-14T16:41:02;17.70;99.90
26136;DHT22;13889;50.806;4.608;2022-09-14T16:43:29;17.70;99.90
26136;DHT22;13889;50.806;4.608;2022-09-14T16:46:09;17.90;99.90
26136;DHT22;13889;50.806;4.608;2022-09-14T16:48:39;18.00;99.90
26136;DHT22;13889;50.806;4.608;2022-09-14T16:51:05;18.00;99.90
26136;DHT22;13889;50.806;4.608;2022-09-14T16:53:33;18.00;99.90
26136;DHT22;13889;50.806;4.608;2022-09-14T16:56:03;18.00;99.90
26136;DHT22;13889;50.806;4.608;2022-09-14T16:58:29;18.00;99.90
26136;DHT22;13889;50.806;4.608;2022-09-14T17:00:55;18.00;99.90
26136;DHT22;13889;50.806;4.608;2022-09-14T17:03:21;18.00;99.90
26136;DHT22;13889;50.806;4.608;2022-09-14T17:05:46;18.00;99.90
26136;DHT22;13889;50.806;4.608;2022-09-14T17:08:13;18.00;99.90
26136;DHT22;13889;50.806;4.608;2022-09-14T17:10:38;18.00;99.90
26136;DHT22;13889;50.806;4.608;2022-09-14T17:13:04;18.00;99.90
26136;DHT22;13889;50.806;4.608;2022-09-14T17:15:30;18.10;99.90
26136;DHT22;13889;50.806;4.608;2022-09-14T17:17:56;17.90;99.90
26136;DHT22;13889;50.806;4.608;2022-09-14T17:20:21;17.90;99.90
26136;DHT22;13889;50.806;4.608;2022-09-14T17:22:47;17.90;99.90
26136;DHT22;13889;50.806;4.608;2022-09-14T17:25:13;17.90;99.90
26136;DHT22;13889;50.806;4.608;2022-09-14T17:27:38;17.90;99.90
26136;DHT22;13889;50.806;4.608;2022-09-14T17:30:05;17.90;99.90
26136;DHT22;13889;50.806;4.608;2022-09-14T17:32:31;17.70;99.90
26136;DHT22;13889;50.806;4.608;2022-09-14T17:34:58;17.90;99.90
26136;DHT22;13889;50.806;4.608;2022-09-14T17:37:23;17.90;99.90
26136;DHT22;13889;50.806;4.608;2022-09-14T17:39:49;17.80;99.90
26136;DHT22;13889;50.806;4.608;2022-09-14T17:42:15;17.90;99.90
26136;DHT22;13889;50.806;4.608;2022-09-14T17:44:40;17.80;99.90
26136;DHT22;13889;50.806;4.608;2022-09-14T17:47:07;17.70;99.90
26136;DHT22;13889;50.806;4.608;2022-09-14T17:49:32;17.60;99.90
26136;DHT22;13889;50.806;4.608;2022-09-14T17:51:58;17.50;99.90
26136;DHT22;13889;50.806;4.608;2022-09-14T17:54:25;17.30;99.90
26136;DHT22;13889;50.806;4.608;2022-09-14T17:56:51;17.20;99.90
26136;DHT22;13889;50.806;4.608;2022-09-14T17:59:18;17.30;99.90
26136;DHT22;13889;50.806;4.608;2022-09-14T18:01:45;17.40;99.90
26136;DHT22;13889;50.806;4.608;2022-09-14T18:04:12;17.40;99.90
26136;DHT22;13889;50.806;4.608;2022-09-14T18:06:41;17.50;99.90
26136;DHT22;13889;50.806;4.608;2022-09-14T18:09:16;17.40;99.90
26136;DHT22;13889;50.806;4.608;2022-09-14T18:11:43;17.20;99.90
26136;DHT22;13889;50.806;4.608;2022-09-14T18:14:09;17.00;99.90
26136;DHT22;13889;50.806;4.608;2022-09-14T18:16:37;17.10;99.90
26136;DHT22;13889;50.806;4.608;2022-09-14T18:19:03;17.30;99.90
26136;DHT22;13889;50.806;4.608;2022-09-14T18:21:29;17.40;99.90
26136;DHT22;13889;50.806;4.608;2022-09-14T18:23:55;17.40;99.90
26136;DHT22;13889;50.806;4.608;2022-09-14T18:26:22;17.50;99.90
26136;DHT22;13889;50.806;4.608;2022-09-14T18:28:48;17.50;99.90
26136;DHT22;13889;50.806;4.608;2022-09-14T18:31:18;17.50;99.90
26136;DHT22;13889;50.806;4.608;2022-09-14T18:33:58;17.60;99.90
26136;DHT22;13889;50.806;4.608;2022-09-14T18:36:25;17.60;99.90
26136;DHT22;13889;50.806;4.608;2022-09-14T18:38:51;17.40;99.90
26136;DHT22;13889;50.806;4.608;2022-09-14T18:41:19;17.50;99.90
26136;DHT22;13889;50.806;4.608;2022-09-14T18:43:47;17.50;99.90
26136;DHT22;13889;50.806;4.608;2022-09-14T18:46:14;17.40;99.90
26136;DHT22;13889;50.806;4.608;2022-09-14T18:48:41;17.30;99.90
26136;DHT22;13889;50.806;4.608;2022-09-14T18:51:09;17.40;99.90
26136;DHT22;13889;50.806;4.608;2022-09-14T18:53:35;17.40;99.90
26136;DHT22;13889;50.806;4.608;2022-09-14T18:56:03;17.50;99.90
26136;DHT22;13889;50.806;4.608;2022-09-14T18:58:33;17.40;99.90
26136;DHT22;13889;50.806;4.608;2022-09-14T19:00:59;17.50;99.90
26136;DHT22;13889;50.806;4.608;2022-09-14T19:03:25;17.50;99.90
26136;DHT22;13889;50.806;4.608;2022-09-14T19:05:50;17.50;99.90
26136;DHT22;13889;50.806;4.608;2022-09-14T19:08:16;17.40;99.90
26136;DHT22;13889;50.806;4.608;2022-09-14T19:10:41;17.50;99.90
26136;DHT22;13889;50.806;4.608;2022-09-14T19:13:07;17.60;99.90
26136;DHT22;13889;50.806;4.608;2022-09-14T19:15:33;17.60;99.90
26136;DHT22;13889;50.806;4.608;2022-09-14T19:17:59;17.70;99.90
26136;DHT22;13889;50.806;4.608;2022-09-14T19:20:25;17.60;99.90
26136;DHT22;13889;50.806;4.608;2022-09-14T19:22:51;17.60;99.90
26136;DHT22;13889;50.806;4.608;2022-09-14T19:25:20;17.60;99.90
26136;DHT22;13889;50.806;4.608;2022-09-14T19:27:46;17.70;99.90
26136;DHT22;13889;50.806;4.608;2022-09-14T19:30:14;17.60;99.90
26136;DHT22;13889;50.806;4.608;2022-09-14T19:32:39;17.60;99.90
26136;DHT22;13889;50.806;4.608;2022-09-14T19:35:05;17.50;99.90
26136;DHT22;13889;50.806;4.608;2022-09-14T19:37:31;17.60;99.90
26136;DHT22;13889;50.806;4.608;2022-09-14T19:39:57;17.50;99.90
26136;DHT22;13889;50.806;4.608;2022-09-14T19:42:24;17.50;99.90
26136;DHT22;13889;50.806;4.608;2022-09-14T19:44:49;17.50;99.90
26136;DHT22;13889;50.806;4.608;2022-09-14T19:47:15;17.50;99.90